sensor_id;sensor_type;location;lat;lon;timestamp;P1;durP1;ratioP1;P2;durP2;ratioP2
19883;SDS011;10104;50.732;10.174;2022-12-07T00:01:32;9.60;;;6.90;;
19883;SDS011;10104;50.732;10.174;2022-12-07T00:03:56;8.10;;;6.50;;
19883;SDS011;10104;50.732;10.174;2022-12-07T00:06:21;10.30;;;7.00;;
19883;SDS011;10104;50.732;10.174;2022-12-07T00:08:43;8.83;;;7.07;;
19883;SDS011;10104;50.732;10.174;2022-12-07T00:11:06;12.50;;;7.57;;
19883;SDS011;10104;50.732;10.174;2022-12-07T00:13:30;11.63;;;8.10;;
19883;SDS011;10104;50.732;10.174;2022-12-07T00:15:52;10.87;;;8.17;;
19883;SDS011;10104;50.732;10.174;2022-12-07T00:18:14;9.87;;;7.30;;
19883;SDS011;10104;50.732;10.174;2022-12-07T00:20:35;10.80;;;7.27;;
19883;SDS011;10104;50.732;10.174;2022-12-07T00:22:57;11.07;;;8.37;;
19883;SDS011;10104;50.732;10.174;2022-12-07T00:25:19;10.67;;;8.13;;
19883;SDS011;10104;50.732;10.174;2022-12-07T00:27:40;15.33;;;7.90;;
19883;SDS011;10104;50.732;10.174;2022-12-07T00:30:02;10.07;;;8.37;;
19883;SDS011;10104;50.732;10.174;2022-12-07T00:32:24;10.80;;;7.80;;
19883;SDS011;10104;50.732;10.174;2022-12-07T00:34:46;10.00;;;7.37;;
19883;SDS011;10104;50.732;10.174;2022-12-07T00:37:07;11.40;;;8.10;;
19883;SDS011;10104;50.732;10.174;2022-12-07T00:39:28;11.50;;;8.30;;
19883;SDS011;10104;50.732;10.174;2022-12-07T00:41:50;10.83;;;8.40;;
19883;SDS011;10104;50.732;10.174;2022-12-07T00:44:11;11.40;;;8.17;;
19883;SDS011;10104;50.732;10.174;2022-12-07T00:46:33;10.10;;;7.37;;
19883;SDS011;10104;50.732;10.174;2022-12-07T00:48:55;12.93;;;8.00;;
19883;SDS011;10104;50.732;10.174;2022-12-07T00:51:17;9.33;;;7.50;;
19883;SDS011;10104;50.732;10.174;2022-12-07T00:53:40;10.93;;;7.67;;
19883;SDS011;10104;50.732;10.174;2022-12-07T00:56:09;13.43;;;7.63;;
19883;SDS011;10104;50.732;10.174;2022-12-07T00:58:33;10.70;;;8.10;;
19883;SDS011;10104;50.732;10.174;2022-12-07T01:00:54;12.00;;;7.83;;
19883;SDS011;10104;50.732;10.174;2022-12-07T01:03:21;12.33;;;7.53;;
19883;SDS011;10104;50.732;10.174;2022-12-07T01:05:50;9.63;;;7.63;;
19883;SDS011;10104;50.732;10.174;2022-12-07T01:08:13;9.77;;;6.93;;
19883;SDS011;10104;50.732;10.174;2022-12-07T01:10:34;10.70;;;8.23;;
19883;SDS011;10104;50.732;10.174;2022-12-07T01:12:56;9.83;;;7.77;;
19883;SDS011;10104;50.732;10.174;2022-12-07T01:15:18;9.53;;;7.57;;
19883;SDS011;10104;50.732;10.174;2022-12-07T01:17:39;9.90;;;6.93;;
19883;SDS011;10104;50.732;10.174;2022-12-07T01:20:01;8.77;;;7.33;;
19883;SDS011;10104;50.732;10.174;2022-12-07T01:22:23;9.57;;;7.17;;
19883;SDS011;10104;50.732;10.174;2022-12-07T01:24:44;10.60;;;7.40;;
19883;SDS011;10104;50.732;10.174;2022-12-07T01:27:07;10.53;;;7.57;;
19883;SDS011;10104;50.732;10.174;2022-12-07T01:29:29;9.97;;;7.63;;
19883;SDS011;10104;50.732;10.174;2022-12-07T01:31:50;9.90;;;7.47;;
19883;SDS011;10104;50.732;10.174;2022-12-07T01:34:12;12.47;;;7.97;;
19883;SDS011;10104;50.732;10.174;2022-12-07T01:36:34;9.33;;;6.70;;
19883;SDS011;10104;50.732;10.174;2022-12-07T01:38:58;10.03;;;6.43;;
19883;SDS011;10104;50.732;10.174;2022-12-07T01:41:21;11.57;;;7.43;;
19883;SDS011;10104;50.732;10.174;2022-12-07T01:46:29;8.97;;;6.50;;
19883;SDS011;10104;50.732;10.174;2022-12-07T01:48:51;11.57;;;8.30;;
19883;SDS011;10104;50.732;10.174;2022-12-07T01:51:12;12.43;;;8.53;;
19883;SDS011;10104;50.732;10.174;2022-12-07T01:53:36;12.87;;;9.37;;
19883;SDS011;10104;50.732;10.174;2022-12-07T01:56:00;13.43;;;9.07;;
19883;SDS011;10104;50.732;10.174;2022-12-07T01:58:22;12.47;;;8.53;;
19883;SDS011;10104;50.732;10.174;2022-12-07T02:00:45;13.83;;;8.60;;
19883;SDS011;10104;50.732;10.174;2022-12-07T02:03:11;11.50;;;8.30;;
19883;SDS011;10104;50.732;10.174;2022-12-07T02:05:40;12.80;;;9.10;;
19883;SDS011;10104;50.732;10.174;2022-12-07T02:08:02;13.80;;;9.30;;
19883;SDS011;10104;50.732;10.174;2022-12-07T02:10:26;14.67;;;10.10;;
19883;SDS011;10104;50.732;10.174;2022-12-07T02:12:51;14.20;;;10.70;;
19883;SDS011;10104;50.732;10.174;2022-12-07T02:18:09;16.70;;;9.70;;
19883;SDS011;10104;50.732;10.174;2022-12-07T02:20:57;15.23;;;9.87;;
19883;SDS011;10104;50.732;10.174;2022-12-07T02:23:39;14.03;;;9.50;;
19883;SDS011;10104;50.732;10.174;2022-12-07T02:28:34;18.47;;;12.67;;
19883;SDS011;10104;50.732;10.174;2022-12-07T02:30:58;17.50;;;11.23;;
19883;SDS011;10104;50.732;10.174;2022-12-07T02:33:33;16.87;;;11.43;;
19883;SDS011;10104;50.732;10.174;2022-12-07T02:36:02;17.37;;;12.10;;
19883;SDS011;10104;50.732;10.174;2022-12-07T02:38:35;16.23;;;10.03;;
19883;SDS011;10104;50.732;10.174;2022-12-07T02:41:16;15.47;;;10.87;;
19883;SDS011;10104;50.732;10.174;2022-12-07T02:43:48;19.93;;;11.97;;
19883;SDS011;10104;50.732;10.174;2022-12-07T02:46:15;17.60;;;11.23;;
19883;SDS011;10104;50.732;10.174;2022-12-07T02:48:41;18.57;;;11.73;;
19883;SDS011;10104;50.732;10.174;2022-12-07T02:51:04;18.67;;;12.83;;
19883;SDS011;10104;50.732;10.174;2022-12-07T02:53:30;17.40;;;11.33;;
19883;SDS011;10104;50.732;10.174;2022-12-07T02:55:56;18.27;;;11.70;;
19883;SDS011;10104;50.732;10.174;2022-12-07T02:58:21;20.20;;;12.40;;
19883;SDS011;10104;50.732;10.174;2022-12-07T03:03:36;16.57;;;11.83;;
19883;SDS011;10104;50.732;10.174;2022-12-07T03:06:07;18.97;;;12.23;;
19883;SDS011;10104;50.732;10.174;2022-12-07T03:08:46;17.23;;;12.23;;
19883;SDS011;10104;50.732;10.174;2022-12-07T03:11:24;19.93;;;12.87;;
19883;SDS011;10104;50.732;10.174;2022-12-07T03:19:17;18.80;;;11.80;;
19883;SDS011;10104;50.732;10.174;2022-12-07T03:21:53;19.60;;;12.13;;
19883;SDS011;10104;50.732;10.174;2022-12-07T03:24:31;22.03;;;13.57;;
19883;SDS011;10104;50.732;10.174;2022-12-07T03:27:19;17.93;;;11.40;;
19883;SDS011;10104;50.732;10.174;2022-12-07T03:29:49;16.63;;;11.03;;
19883;SDS011;10104;50.732;10.174;2022-12-07T03:32:28;15.00;;;10.27;;
19883;SDS011;10104;50.732;10.174;2022-12-07T03:37:25;14.43;;;9.43;;
19883;SDS011;10104;50.732;10.174;2022-12-07T03:42:34;12.77;;;9.40;;
19883;SDS011;10104;50.732;10.174;2022-12-07T03:44:56;13.97;;;8.43;;
19883;SDS011;10104;50.732;10.174;2022-12-07T03:50:00;13.13;;;9.13;;
19883;SDS011;10104;50.732;10.174;2022-12-07T03:52:30;11.63;;;7.83;;
19883;SDS011;10104;50.732;10.174;2022-12-07T03:55:22;13.93;;;9.57;;
19883;SDS011;10104;50.732;10.174;2022-12-07T03:57:49;13.73;;;9.97;;
19883;SDS011;10104;50.732;10.174;2022-12-07T04:00:14;17.07;;;10.43;;
19883;SDS011;10104;50.732;10.174;2022-12-07T04:02:36;14.67;;;9.77;;
19883;SDS011;10104;50.732;10.174;2022-12-07T04:04:58;15.13;;;10.23;;
19883;SDS011;10104;50.732;10.174;2022-12-07T04:07:19;12.07;;;8.67;;
19883;SDS011;10104;50.732;10.174;2022-12-07T04:09:41;15.00;;;9.77;;
19883;SDS011;10104;50.732;10.174;2022-12-07T04:12:02;11.97;;;8.93;;
19883;SDS011;10104;50.732;10.174;2022-12-07T04:14:24;13.17;;;9.27;;
19883;SDS011;10104;50.732;10.174;2022-12-07T04:16:49;15.60;;;10.70;;
19883;SDS011;10104;50.732;10.174;2022-12-07T04:19:11;16.37;;;10.93;;
19883;SDS011;10104;50.732;10.174;2022-12-07T04:21:33;12.97;;;9.37;;
19883;SDS011;10104;50.732;10.174;2022-12-07T04:23:55;13.07;;;9.30;;
19883;SDS011;10104;50.732;10.174;2022-12-07T04:26:16;14.37;;;10.23;;
19883;SDS011;10104;50.732;10.174;2022-12-07T04:28:38;13.13;;;9.07;;
19883;SDS011;10104;50.732;10.174;2022-12-07T04:30:59;15.67;;;10.17;;
19883;SDS011;10104;50.732;10.174;2022-12-07T04:33:21;17.13;;;11.37;;
19883;SDS011;10104;50.732;10.174;2022-12-07T04:35:42;18.40;;;12.03;;
19883;SDS011;10104;50.732;10.174;2022-12-07T04:38:04;21.47;;;13.13;;
19883;SDS011;10104;50.732;10.174;2022-12-07T04:40:25;19.40;;;13.40;;
19883;SDS011;10104;50.732;10.174;2022-12-07T04:42:47;22.00;;;13.93;;
19883;SDS011;10104;50.732;10.174;2022-12-07T04:45:08;19.80;;;13.03;;
19883;SDS011;10104;50.732;10.174;2022-12-07T04:47:30;21.27;;;13.73;;
19883;SDS011;10104;50.732;10.174;2022-12-07T04:49:52;21.57;;;14.17;;
19883;SDS011;10104;50.732;10.174;2022-12-07T04:52:13;20.53;;;14.23;;
19883;SDS011;10104;50.732;10.174;2022-12-07T04:54:34;24.33;;;16.90;;
19883;SDS011;10104;50.732;10.174;2022-12-07T04:56:56;24.70;;;17.30;;
19883;SDS011;10104;50.732;10.174;2022-12-07T04:59:17;24.83;;;16.83;;
19883;SDS011;10104;50.732;10.174;2022-12-07T05:01:39;24.63;;;16.00;;
19883;SDS011;10104;50.732;10.174;2022-12-07T05:04:01;22.20;;;15.50;;
19883;SDS011;10104;50.732;10.174;2022-12-07T05:06:23;30.17;;;17.27;;
19883;SDS011;10104;50.732;10.174;2022-12-07T05:08:45;24.93;;;16.13;;
19883;SDS011;10104;50.732;10.174;2022-12-07T05:11:07;27.40;;;16.30;;
19883;SDS011;10104;50.732;10.174;2022-12-07T05:13:29;24.77;;;16.17;;
19883;SDS011;10104;50.732;10.174;2022-12-07T05:15:50;25.90;;;17.23;;
19883;SDS011;10104;50.732;10.174;2022-12-07T05:18:12;29.33;;;17.90;;
19883;SDS011;10104;50.732;10.174;2022-12-07T05:20:33;27.87;;;16.87;;
19883;SDS011;10104;50.732;10.174;2022-12-07T05:23:02;27.60;;;17.17;;
19883;SDS011;10104;50.732;10.174;2022-12-07T05:25:24;24.93;;;17.17;;
19883;SDS011;10104;50.732;10.174;2022-12-07T05:27:45;24.20;;;16.00;;
19883;SDS011;10104;50.732;10.174;2022-12-07T05:30:07;28.47;;;16.73;;
19883;SDS011;10104;50.732;10.174;2022-12-07T05:32:29;26.10;;;16.30;;
19883;SDS011;10104;50.732;10.174;2022-12-07T05:34:50;27.37;;;17.60;;
19883;SDS011;10104;50.732;10.174;2022-12-07T05:37:12;24.17;;;16.70;;
19883;SDS011;10104;50.732;10.174;2022-12-07T05:39:33;23.83;;;16.30;;
19883;SDS011;10104;50.732;10.174;2022-12-07T05:41:55;26.33;;;17.43;;
19883;SDS011;10104;50.732;10.174;2022-12-07T05:44:35;25.50;;;15.70;;
19883;SDS011;10104;50.732;10.174;2022-12-07T05:46:56;24.80;;;16.13;;
19883;SDS011;10104;50.732;10.174;2022-12-07T05:49:18;19.20;;;13.13;;
19883;SDS011;10104;50.732;10.174;2022-12-07T05:51:39;19.00;;;12.73;;
19883;SDS011;10104;50.732;10.174;2022-12-07T05:54:01;17.80;;;12.43;;
19883;SDS011;10104;50.732;10.174;2022-12-07T05:56:23;19.37;;;11.70;;
19883;SDS011;10104;50.732;10.174;2022-12-07T05:58:45;18.00;;;11.90;;
19883;SDS011;10104;50.732;10.174;2022-12-07T06:01:25;15.87;;;10.97;;
19883;SDS011;10104;50.732;10.174;2022-12-07T06:03:46;18.40;;;11.93;;
19883;SDS011;10104;50.732;10.174;2022-12-07T06:06:08;19.23;;;12.30;;
19883;SDS011;10104;50.732;10.174;2022-12-07T06:08:29;16.90;;;12.27;;
19883;SDS011;10104;50.732;10.174;2022-12-07T06:10:51;17.57;;;12.10;;
19883;SDS011;10104;50.732;10.174;2022-12-07T06:13:32;17.17;;;11.63;;
19883;SDS011;10104;50.732;10.174;2022-12-07T06:15:54;17.73;;;11.40;;
19883;SDS011;10104;50.732;10.174;2022-12-07T06:18:15;15.43;;;11.33;;
19883;SDS011;10104;50.732;10.174;2022-12-07T06:20:37;14.53;;;10.30;;
19883;SDS011;10104;50.732;10.174;2022-12-07T06:22:58;14.23;;;10.53;;
19883;SDS011;10104;50.732;10.174;2022-12-07T06:25:20;17.93;;;11.30;;
19883;SDS011;10104;50.732;10.174;2022-12-07T06:27:41;16.13;;;11.33;;
19883;SDS011;10104;50.732;10.174;2022-12-07T06:30:03;15.77;;;10.30;;
19883;SDS011;10104;50.732;10.174;2022-12-07T06:32:27;15.13;;;10.63;;
19883;SDS011;10104;50.732;10.174;2022-12-07T06:34:49;13.57;;;9.83;;
19883;SDS011;10104;50.732;10.174;2022-12-07T06:37:10;14.73;;;10.33;;
19883;SDS011;10104;50.732;10.174;2022-12-07T06:39:32;13.40;;;10.27;;
19883;SDS011;10104;50.732;10.174;2022-12-07T06:41:53;15.37;;;10.67;;
19883;SDS011;10104;50.732;10.174;2022-12-07T06:44:15;14.20;;;9.67;;
19883;SDS011;10104;50.732;10.174;2022-12-07T06:46:37;13.30;;;9.47;;
19883;SDS011;10104;50.732;10.174;2022-12-07T06:48:58;15.67;;;10.13;;
19883;SDS011;10104;50.732;10.174;2022-12-07T06:51:20;15.57;;;11.37;;
19883;SDS011;10104;50.732;10.174;2022-12-07T06:53:41;13.77;;;10.73;;
19883;SDS011;10104;50.732;10.174;2022-12-07T06:56:03;15.37;;;11.57;;
19883;SDS011;10104;50.732;10.174;2022-12-07T06:58:25;17.00;;;11.10;;
19883;SDS011;10104;50.732;10.174;2022-12-07T07:00:47;16.57;;;9.37;;
19883;SDS011;10104;50.732;10.174;2022-12-07T07:03:11;11.47;;;8.17;;
19883;SDS011;10104;50.732;10.174;2022-12-07T07:05:32;11.33;;;9.10;;
19883;SDS011;10104;50.732;10.174;2022-12-07T07:07:54;13.33;;;9.60;;
19883;SDS011;10104;50.732;10.174;2022-12-07T07:10:35;11.83;;;8.37;;
19883;SDS011;10104;50.732;10.174;2022-12-07T07:12:57;14.17;;;9.00;;
19883;SDS011;10104;50.732;10.174;2022-12-07T07:15:19;13.00;;;9.70;;
19883;SDS011;10104;50.732;10.174;2022-12-07T07:17:40;14.23;;;10.07;;
19883;SDS011;10104;50.732;10.174;2022-12-07T07:20:02;13.43;;;9.10;;
19883;SDS011;10104;50.732;10.174;2022-12-07T07:22:24;13.87;;;9.93;;
19883;SDS011;10104;50.732;10.174;2022-12-07T07:24:45;14.30;;;10.20;;
19883;SDS011;10104;50.732;10.174;2022-12-07T07:27:07;15.10;;;10.90;;
19883;SDS011;10104;50.732;10.174;2022-12-07T07:29:28;14.97;;;9.47;;
19883;SDS011;10104;50.732;10.174;2022-12-07T07:31:50;13.80;;;9.57;;
19883;SDS011;10104;50.732;10.174;2022-12-07T07:34:11;15.03;;;9.97;;
19883;SDS011;10104;50.732;10.174;2022-12-07T07:36:33;12.40;;;9.40;;
19883;SDS011;10104;50.732;10.174;2022-12-07T07:38:54;14.83;;;10.03;;
19883;SDS011;10104;50.732;10.174;2022-12-07T07:41:16;12.20;;;8.77;;
19883;SDS011;10104;50.732;10.174;2022-12-07T07:43:37;11.63;;;7.17;;
19883;SDS011;10104;50.732;10.174;2022-12-07T07:45:59;12.03;;;8.73;;
19883;SDS011;10104;50.732;10.174;2022-12-07T07:48:20;12.10;;;8.27;;
19883;SDS011;10104;50.732;10.174;2022-12-07T07:50:43;13.00;;;8.87;;
19883;SDS011;10104;50.732;10.174;2022-12-07T07:53:05;13.20;;;9.07;;
19883;SDS011;10104;50.732;10.174;2022-12-07T07:55:26;10.83;;;8.40;;
19883;SDS011;10104;50.732;10.174;2022-12-07T07:57:48;10.67;;;8.17;;
19883;SDS011;10104;50.732;10.174;2022-12-07T08:00:15;10.87;;;8.10;;
19883;SDS011;10104;50.732;10.174;2022-12-07T08:02:37;13.73;;;9.43;;
19883;SDS011;10104;50.732;10.174;2022-12-07T08:04:59;14.47;;;8.70;;
19883;SDS011;10104;50.732;10.174;2022-12-07T08:07:20;15.47;;;8.73;;
19883;SDS011;10104;50.732;10.174;2022-12-07T08:09:42;12.57;;;7.97;;
19883;SDS011;10104;50.732;10.174;2022-12-07T08:12:03;9.27;;;6.77;;
19883;SDS011;10104;50.732;10.174;2022-12-07T08:14:26;11.03;;;7.03;;
19883;SDS011;10104;50.732;10.174;2022-12-07T08:16:48;8.63;;;6.30;;
19883;SDS011;10104;50.732;10.174;2022-12-07T08:19:10;8.50;;;6.60;;
19883;SDS011;10104;50.732;10.174;2022-12-07T08:21:31;10.10;;;6.80;;
19883;SDS011;10104;50.732;10.174;2022-12-07T08:23:52;9.23;;;6.10;;
19883;SDS011;10104;50.732;10.174;2022-12-07T08:26:15;12.07;;;6.80;;
19883;SDS011;10104;50.732;10.174;2022-12-07T08:28:38;8.87;;;6.53;;
19883;SDS011;10104;50.732;10.174;2022-12-07T08:31:04;11.17;;;6.10;;
19883;SDS011;10104;50.732;10.174;2022-12-07T08:33:27;10.00;;;7.17;;
19883;SDS011;10104;50.732;10.174;2022-12-07T08:35:49;11.13;;;6.27;;
19883;SDS011;10104;50.732;10.174;2022-12-07T08:38:10;8.73;;;6.73;;
19883;SDS011;10104;50.732;10.174;2022-12-07T08:40:32;13.53;;;7.10;;
19883;SDS011;10104;50.732;10.174;2022-12-07T08:42:53;9.83;;;6.70;;
19883;SDS011;10104;50.732;10.174;2022-12-07T08:45:15;10.87;;;7.23;;
19883;SDS011;10104;50.732;10.174;2022-12-07T08:47:50;11.20;;;6.90;;
19883;SDS011;10104;50.732;10.174;2022-12-07T08:50:18;11.23;;;7.47;;
19883;SDS011;10104;50.732;10.174;2022-12-07T08:52:41;10.17;;;7.33;;
19883;SDS011;10104;50.732;10.174;2022-12-07T08:55:03;13.63;;;7.93;;
19883;SDS011;10104;50.732;10.174;2022-12-07T08:57:26;11.37;;;7.47;;
19883;SDS011;10104;50.732;10.174;2022-12-07T08:59:49;9.97;;;7.43;;
19883;SDS011;10104;50.732;10.174;2022-12-07T09:02:10;10.17;;;7.27;;
19883;SDS011;10104;50.732;10.174;2022-12-07T09:04:32;10.67;;;7.23;;
19883;SDS011;10104;50.732;10.174;2022-12-07T09:06:54;11.40;;;6.40;;
19883;SDS011;10104;50.732;10.174;2022-12-07T09:09:16;9.10;;;6.40;;
19883;SDS011;10104;50.732;10.174;2022-12-07T09:11:38;10.37;;;7.30;;
19883;SDS011;10104;50.732;10.174;2022-12-07T09:14:00;13.10;;;7.90;;
19883;SDS011;10104;50.732;10.174;2022-12-07T09:16:21;11.13;;;8.13;;
19883;SDS011;10104;50.732;10.174;2022-12-07T09:18:43;9.17;;;7.53;;
19883;SDS011;10104;50.732;10.174;2022-12-07T09:21:05;7.83;;;6.40;;
19883;SDS011;10104;50.732;10.174;2022-12-07T09:23:26;11.07;;;6.97;;
19883;SDS011;10104;50.732;10.174;2022-12-07T09:25:48;10.13;;;6.40;;
19883;SDS011;10104;50.732;10.174;2022-12-07T09:28:09;9.87;;;6.60;;
19883;SDS011;10104;50.732;10.174;2022-12-07T09:30:31;12.20;;;7.53;;
19883;SDS011;10104;50.732;10.174;2022-12-07T09:33:12;12.30;;;7.27;;
19883;SDS011;10104;50.732;10.174;2022-12-07T09:35:34;11.40;;;6.77;;
19883;SDS011;10104;50.732;10.174;2022-12-07T09:37:56;9.70;;;5.90;;
19883;SDS011;10104;50.732;10.174;2022-12-07T09:40:17;7.77;;;5.60;;
19883;SDS011;10104;50.732;10.174;2022-12-07T09:42:43;8.10;;;6.00;;
19883;SDS011;10104;50.732;10.174;2022-12-07T09:45:12;9.43;;;4.97;;
19883;SDS011;10104;50.732;10.174;2022-12-07T09:47:36;7.73;;;5.60;;
19883;SDS011;10104;50.732;10.174;2022-12-07T09:50:00;10.30;;;6.50;;
19883;SDS011;10104;50.732;10.174;2022-12-07T09:52:27;10.57;;;6.13;;
19883;SDS011;10104;50.732;10.174;2022-12-07T09:54:58;9.10;;;5.90;;
19883;SDS011;10104;50.732;10.174;2022-12-07T09:57:23;8.73;;;6.03;;
19883;SDS011;10104;50.732;10.174;2022-12-07T09:59:51;9.73;;;6.43;;
19883;SDS011;10104;50.732;10.174;2022-12-07T10:02:23;12.20;;;6.10;;
19883;SDS011;10104;50.732;10.174;2022-12-07T10:04:50;8.97;;;5.90;;
19883;SDS011;10104;50.732;10.174;2022-12-07T10:07:12;8.37;;;5.70;;
19883;SDS011;10104;50.732;10.174;2022-12-07T10:09:33;9.17;;;6.43;;
19883;SDS011;10104;50.732;10.174;2022-12-07T10:12:03;10.47;;;6.80;;
19883;SDS011;10104;50.732;10.174;2022-12-07T10:14:28;10.23;;;7.00;;
19883;SDS011;10104;50.732;10.174;2022-12-07T10:17:31;9.27;;;7.00;;
19883;SDS011;10104;50.732;10.174;2022-12-07T10:20:13;10.60;;;7.50;;
19883;SDS011;10104;50.732;10.174;2022-12-07T10:22:36;9.43;;;6.63;;
19883;SDS011;10104;50.732;10.174;2022-12-07T10:25:07;8.57;;;6.13;;
19883;SDS011;10104;50.732;10.174;2022-12-07T10:27:30;11.57;;;5.90;;
19883;SDS011;10104;50.732;10.174;2022-12-07T10:29:53;9.07;;;6.23;;
19883;SDS011;10104;50.732;10.174;2022-12-07T10:34:37;11.30;;;6.53;;
19883;SDS011;10104;50.732;10.174;2022-12-07T10:37:21;10.93;;;5.83;;
19883;SDS011;10104;50.732;10.174;2022-12-07T10:42:15;8.57;;;4.93;;
19883;SDS011;10104;50.732;10.174;2022-12-07T10:44:42;6.53;;;5.07;;
19883;SDS011;10104;50.732;10.174;2022-12-07T10:52:40;8.57;;;5.43;;
19883;SDS011;10104;50.732;10.174;2022-12-07T10:55:19;6.60;;;4.53;;
19883;SDS011;10104;50.732;10.174;2022-12-07T10:57:52;8.33;;;5.10;;
19883;SDS011;10104;50.732;10.174;2022-12-07T11:00:22;8.47;;;4.63;;
19883;SDS011;10104;50.732;10.174;2022-12-07T11:08:42;7.03;;;4.23;;
19883;SDS011;10104;50.732;10.174;2022-12-07T11:14:13;11.63;;;4.77;;
19883;SDS011;10104;50.732;10.174;2022-12-07T11:22:10;9.67;;;5.37;;
19883;SDS011;10104;50.732;10.174;2022-12-07T11:30:47;8.70;;;5.57;;
19883;SDS011;10104;50.732;10.174;2022-12-07T11:38:49;7.53;;;4.57;;
19883;SDS011;10104;50.732;10.174;2022-12-07T11:41:13;4.93;;;3.43;;
19883;SDS011;10104;50.732;10.174;2022-12-07T11:43:55;6.07;;;3.50;;
19883;SDS011;10104;50.732;10.174;2022-12-07T11:46:24;9.47;;;3.53;;
19883;SDS011;10104;50.732;10.174;2022-12-07T11:49:00;4.90;;;3.60;;
19883;SDS011;10104;50.732;10.174;2022-12-07T11:51:29;6.50;;;3.73;;
19883;SDS011;10104;50.732;10.174;2022-12-07T11:54:03;8.27;;;4.33;;
19883;SDS011;10104;50.732;10.174;2022-12-07T11:56:33;8.63;;;5.03;;
19883;SDS011;10104;50.732;10.174;2022-12-07T11:59:17;6.70;;;3.30;;
19883;SDS011;10104;50.732;10.174;2022-12-07T12:01:50;8.10;;;3.10;;
19883;SDS011;10104;50.732;10.174;2022-12-07T12:06:44;6.67;;;3.60;;
19883;SDS011;10104;50.732;10.174;2022-12-07T12:17:53;3.83;;;3.30;;
19883;SDS011;10104;50.732;10.174;2022-12-07T12:20:29;4.20;;;2.50;;
19883;SDS011;10104;50.732;10.174;2022-12-07T12:23:01;10.17;;;2.90;;
19883;SDS011;10104;50.732;10.174;2022-12-07T12:25:45;4.57;;;3.17;;
19883;SDS011;10104;50.732;10.174;2022-12-07T12:31:04;7.30;;;3.17;;
19883;SDS011;10104;50.732;10.174;2022-12-07T12:33:36;4.47;;;2.60;;
19883;SDS011;10104;50.732;10.174;2022-12-07T12:43:56;5.73;;;2.80;;
19883;SDS011;10104;50.732;10.174;2022-12-07T12:48:55;5.87;;;2.50;;
19883;SDS011;10104;50.732;10.174;2022-12-07T12:51:36;5.73;;;2.87;;
19883;SDS011;10104;50.732;10.174;2022-12-07T12:54:04;4.27;;;2.77;;
19883;SDS011;10104;50.732;10.174;2022-12-07T12:56:51;4.37;;;3.00;;
19883;SDS011;10104;50.732;10.174;2022-12-07T13:01:42;8.23;;;3.20;;
19883;SDS011;10104;50.732;10.174;2022-12-07T13:04:17;5.97;;;2.70;;
19883;SDS011;10104;50.732;10.174;2022-12-07T13:06:45;6.17;;;3.00;;
19883;SDS011;10104;50.732;10.174;2022-12-07T13:09:15;6.00;;;3.00;;
19883;SDS011;10104;50.732;10.174;2022-12-07T13:11:43;4.20;;;2.93;;
19883;SDS011;10104;50.732;10.174;2022-12-07T13:17:02;4.97;;;2.60;;
19883;SDS011;10104;50.732;10.174;2022-12-07T13:19:49;5.30;;;2.53;;
19883;SDS011;10104;50.732;10.174;2022-12-07T13:24:55;2.47;;;1.97;;
19883;SDS011;10104;50.732;10.174;2022-12-07T13:27:17;6.07;;;2.40;;
19883;SDS011;10104;50.732;10.174;2022-12-07T13:29:42;6.30;;;2.30;;
19883;SDS011;10104;50.732;10.174;2022-12-07T13:32:04;4.80;;;2.27;;
19883;SDS011;10104;50.732;10.174;2022-12-07T13:36:54;5.57;;;2.23;;
19883;SDS011;10104;50.732;10.174;2022-12-07T13:39:20;7.33;;;2.70;;
19883;SDS011;10104;50.732;10.174;2022-12-07T13:41:44;4.93;;;2.57;;
19883;SDS011;10104;50.732;10.174;2022-12-07T13:44:09;3.57;;;2.20;;
19883;SDS011;10104;50.732;10.174;2022-12-07T13:46:52;6.97;;;2.80;;
19883;SDS011;10104;50.732;10.174;2022-12-07T13:49:37;3.47;;;2.20;;
19883;SDS011;10104;50.732;10.174;2022-12-07T13:54:43;2.67;;;1.70;;
19883;SDS011;10104;50.732;10.174;2022-12-07T13:57:09;5.93;;;2.03;;
19883;SDS011;10104;50.732;10.174;2022-12-07T13:59:31;6.57;;;2.20;;
19883;SDS011;10104;50.732;10.174;2022-12-07T14:01:54;6.23;;;2.83;;
19883;SDS011;10104;50.732;10.174;2022-12-07T14:04:33;6.53;;;2.70;;
19883;SDS011;10104;50.732;10.174;2022-12-07T14:06:56;5.37;;;2.20;;
19883;SDS011;10104;50.732;10.174;2022-12-07T14:09:19;7.27;;;3.17;;
19883;SDS011;10104;50.732;10.174;2022-12-07T14:11:44;6.17;;;2.70;;
19883;SDS011;10104;50.732;10.174;2022-12-07T14:14:10;5.50;;;2.80;;
19883;SDS011;10104;50.732;10.174;2022-12-07T14:16:39;6.50;;;2.90;;
19883;SDS011;10104;50.732;10.174;2022-12-07T14:19:01;7.00;;;3.27;;
19883;SDS011;10104;50.732;10.174;2022-12-07T14:21:26;5.30;;;3.03;;
19883;SDS011;10104;50.732;10.174;2022-12-07T14:26:32;4.13;;;2.90;;
19883;SDS011;10104;50.732;10.174;2022-12-07T14:28:54;7.23;;;3.43;;
19883;SDS011;10104;50.732;10.174;2022-12-07T14:31:40;8.97;;;3.63;;
19883;SDS011;10104;50.732;10.174;2022-12-07T14:34:02;4.63;;;3.30;;
19883;SDS011;10104;50.732;10.174;2022-12-07T14:36:23;7.80;;;3.37;;
19883;SDS011;10104;50.732;10.174;2022-12-07T14:38:45;7.13;;;2.97;;
19883;SDS011;10104;50.732;10.174;2022-12-07T14:41:11;6.23;;;3.37;;
19883;SDS011;10104;50.732;10.174;2022-12-07T14:43:54;8.80;;;3.40;;
19883;SDS011;10104;50.732;10.174;2022-12-07T14:46:35;7.17;;;3.60;;
19883;SDS011;10104;50.732;10.174;2022-12-07T14:48:57;3.40;;;2.73;;
19883;SDS011;10104;50.732;10.174;2022-12-07T14:51:39;5.13;;;3.20;;
19883;SDS011;10104;50.732;10.174;2022-12-07T14:54:21;5.07;;;3.10;;
19883;SDS011;10104;50.732;10.174;2022-12-07T14:56:48;10.00;;;4.03;;
19883;SDS011;10104;50.732;10.174;2022-12-07T14:59:12;7.33;;;3.10;;
19883;SDS011;10104;50.732;10.174;2022-12-07T15:01:34;6.17;;;3.07;;
19883;SDS011;10104;50.732;10.174;2022-12-07T15:03:55;7.97;;;2.77;;
19883;SDS011;10104;50.732;10.174;2022-12-07T15:06:17;6.73;;;3.00;;
19883;SDS011;10104;50.732;10.174;2022-12-07T15:08:39;9.00;;;2.90;;
19883;SDS011;10104;50.732;10.174;2022-12-07T15:11:01;8.93;;;2.70;;
19883;SDS011;10104;50.732;10.174;2022-12-07T15:13:22;6.03;;;2.97;;
19883;SDS011;10104;50.732;10.174;2022-12-07T15:16:03;5.77;;;3.00;;
19883;SDS011;10104;50.732;10.174;2022-12-07T15:18:26;6.37;;;3.27;;
19883;SDS011;10104;50.732;10.174;2022-12-07T15:20:47;7.33;;;2.70;;
19883;SDS011;10104;50.732;10.174;2022-12-07T15:23:09;9.43;;;3.20;;
19883;SDS011;10104;50.732;10.174;2022-12-07T15:25:31;4.47;;;3.03;;
19883;SDS011;10104;50.732;10.174;2022-12-07T15:27:53;4.23;;;2.87;;
19883;SDS011;10104;50.732;10.174;2022-12-07T15:30:14;4.30;;;2.70;;
19883;SDS011;10104;50.732;10.174;2022-12-07T15:32:36;8.03;;;3.20;;
19883;SDS011;10104;50.732;10.174;2022-12-07T15:34:57;3.60;;;2.60;;
19883;SDS011;10104;50.732;10.174;2022-12-07T15:37:19;7.30;;;3.10;;
19883;SDS011;10104;50.732;10.174;2022-12-07T15:39:40;4.83;;;2.90;;
19883;SDS011;10104;50.732;10.174;2022-12-07T15:42:02;4.63;;;2.40;;
19883;SDS011;10104;50.732;10.174;2022-12-07T15:44:24;5.00;;;2.37;;
19883;SDS011;10104;50.732;10.174;2022-12-07T15:47:04;4.17;;;2.27;;
19883;SDS011;10104;50.732;10.174;2022-12-07T15:49:26;5.27;;;2.17;;
19883;SDS011;10104;50.732;10.174;2022-12-07T15:51:48;3.43;;;2.20;;
19883;SDS011;10104;50.732;10.174;2022-12-07T15:54:13;4.77;;;2.50;;